Terminal Aerodrome Forecast
Issued by NWS

Home | Current Version | Previous Version | Text Only | Print | Product List | Glossary On
Versions: 1 2 3 4 5 6 7 8 9 10 11 12 13 14 15 16
871
FTUS42 KTBW 272332
TAFPGD
TAF
KPGD 272332Z 2800/2824 09008KT P6SM VCTS SCT040CB BKN150
      TEMPO 2800/2801 5SM -TSRA BKN035CB
     FM280200 VRB03KT P6SM FEW030 SCT250
     FM281400 24005KT P6SM SCT025 SCT250
     FM281700 25008KT P6SM VCTS SCT040CB SCT150=

USA.gov is the U.S. government's official web portal to all federal, state and local government web resources and services.